createdAt,value
2019-01-02T00:03:41.996Z,100685.99
2019-01-02T00:08:43.890Z,100689.48
2019-01-02T00:13:45.937Z,100695.77
2019-01-02T00:18:47.821Z,100700.66
2019-01-02T00:23:49.809Z,100699.27
2019-01-02T00:28:52.058Z,100706.41
2019-01-02T00:33:54.244Z,100726.37
2019-01-02T00:38:56.662Z,100710.43
2019-01-02T00:43:58.703Z,100737.92
2019-01-02T00:49:00.722Z,100723.36
2019-01-02T00:54:02.949Z,100717.95
2019-01-02T00:59:04.871Z,100736.72
2019-01-02T01:04:06.882Z,100725.66
2019-01-02T01:09:08.953Z,100740.67
2019-01-02T01:14:12.481Z,100728.37
2019-01-02T01:19:14.371Z,100748.72
2019-01-02T01:24:16.328Z,100745.81
2019-01-02T01:29:18.252Z,100766.66
2019-01-02T01:34:20.239Z,100750.02
2019-01-02T01:39:22.145Z,100768.66
2019-01-02T01:44:24.065Z,100771.48
2019-01-02T01:49:26.562Z,100785.00
2019-01-02T01:54:28.496Z,100793.09
2019-01-02T01:59:30.680Z,100795.98
2019-01-02T02:04:32.610Z,100805.55
2019-01-02T02:09:34.805Z,100795.22
2019-01-02T02:14:36.732Z,100811.87
2019-01-02T02:19:38.614Z,100803.94
2019-01-02T02:24:40.808Z,100798.64
2019-01-02T02:29:43.017Z,100811.60
2019-01-02T02:34:44.910Z,100815.11
2019-01-02T02:39:46.799Z,100817.01
2019-01-02T02:44:49.008Z,100839.77
2019-01-02T02:49:51.307Z,100814.48
2019-01-02T02:54:53.278Z,100836.84
2019-01-02T02:59:55.211Z,100832.77
2019-01-02T03:04:57.209Z,100839.72
2019-01-02T03:09:59.499Z,100823.75
2019-01-02T03:15:02.258Z,100830.92
2019-01-02T03:20:05.116Z,100838.34
2019-01-02T03:25:08.623Z,100854.23
2019-01-02T03:30:13.490Z,100852.08
2019-01-02T03:35:15.908Z,100854.23
2019-01-02T03:40:17.816Z,100855.70
2019-01-02T03:45:19.739Z,100855.83
2019-01-02T03:50:21.735Z,100873.10
2019-01-02T03:55:23.780Z,100886.97
2019-01-02T04:00:26.100Z,100888.02
2019-01-02T04:05:28.031Z,100891.37
2019-01-02T04:10:29.969Z,100919.17
2019-01-02T04:15:32.088Z,100908.16
2019-01-02T04:20:33.978Z,100914.98
2019-01-02T04:25:35.894Z,100899.08
2019-01-02T04:30:37.843Z,100902.97
2019-01-02T04:35:39.784Z,100912.06
2019-01-02T04:40:41.730Z,100916.73
2019-01-02T04:45:43.632Z,100924.28
2019-01-02T04:50:45.545Z,100918.91
2019-01-02T04:55:47.478Z,100926.11
2019-01-02T05:00:49.566Z,100947.84
2019-01-02T05:05:51.756Z,100936.72
2019-01-02T05:10:53.893Z,100941.63
2019-01-02T05:15:55.800Z,100951.19
2019-01-02T05:20:57.707Z,100971.47
2019-01-02T05:25:59.634Z,100972.55
2019-01-02T05:31:01.663Z,100973.34
2019-01-02T05:36:03.571Z,100977.38
2019-01-02T05:41:05.486Z,100979.02
2019-01-02T05:46:07.392Z,100985.06
2019-01-02T05:51:09.291Z,100989.89
2019-01-02T05:56:11.219Z,100995.56
2019-01-02T06:01:14.129Z,101008.48
2019-01-02T06:06:16.088Z,101013.05
2019-01-02T06:11:18.299Z,101001.20
2019-01-02T06:16:20.307Z,101017.73
2019-01-02T06:21:22.218Z,101029.95
2019-01-02T06:26:24.163Z,101048.95
2019-01-02T06:31:26.195Z,101027.98
2019-01-02T06:36:29.336Z,101043.91
2019-01-02T06:41:31.257Z,101045.63
2019-01-02T06:46:33.865Z,101060.47
2019-01-02T06:51:35.760Z,101059.78
2019-01-02T06:56:37.846Z,101069.05
2019-01-02T07:01:39.867Z,101078.34
2019-01-02T07:06:41.759Z,101073.73
2019-01-02T07:11:43.919Z,101079.77
2019-01-02T07:16:45.818Z,101091.63
2019-01-02T07:21:47.746Z,101096.01
2019-01-02T07:26:49.793Z,101109.53
2019-01-02T07:31:51.966Z,101126.06
2019-01-02T07:37:27.428Z,101127.23
2019-01-02T07:43:10.443Z,101142.05
2019-01-02T07:48:52.742Z,101146.31
2019-01-02T07:54:52.372Z,101148.12
2019-01-02T08:00:44.055Z,101152.77
2019-01-02T08:06:50.675Z,101152.92
2019-01-02T08:12:23.008Z,101154.12
2019-01-02T08:17:59.460Z,101161.38
2019-01-02T08:23:49.451Z,101160.84
2019-01-02T08:29:42.156Z,101169.95
2019-01-02T08:35:40.110Z,101187.62
2019-01-02T08:41:15.595Z,101199.50
2019-01-02T08:46:53.821Z,101211.30
2019-01-02T08:52:37.639Z,101221.17
2019-01-02T08:58:22.921Z,101233.61
2019-01-02T09:03:40.777Z,101254.19
2019-01-02T09:09:30.275Z,101250.33
2019-01-02T09:14:56.388Z,101266.72
2019-01-02T09:20:33.713Z,101278.24
2019-01-02T09:26:06.456Z,101303.16
2019-01-02T09:31:28.370Z,101322.36
2019-01-02T09:37:10.815Z,101325.66
2019-01-02T09:42:59.840Z,101327.91
2019-01-02T09:48:30.633Z,101327.25
2019-01-02T09:53:57.616Z,101327.59
2019-01-02T09:59:36.584Z,101342.77
2019-01-02T10:05:18.957Z,101347.20
2019-01-02T10:10:51.502Z,101342.39
2019-01-02T10:16:09.519Z,101343.28
2019-01-02T10:21:31.078Z,101334.34
2019-01-02T10:27:09.418Z,101329.83
2019-01-02T10:32:38.906Z,101356.34
2019-01-02T10:38:10.991Z,101348.48
2019-01-02T10:43:50.297Z,101361.14
2019-01-02T10:49:18.697Z,101391.80
2019-01-02T10:54:47.776Z,101362.83
2019-01-02T11:00:09.860Z,101388.97
2019-01-02T11:06:06.236Z,101375.00
2019-01-02T11:11:21.483Z,101390.31
2019-01-02T11:16:52.403Z,101389.17
2019-01-02T11:22:06.259Z,101395.28
2019-01-02T11:28:04.290Z,101389.26
2019-01-02T11:33:26.298Z,101406.74
2019-01-02T11:38:48.652Z,101406.94
2019-01-02T11:44:22.206Z,101417.45
2019-01-02T11:49:24.117Z,101417.92
2019-01-02T11:54:26.002Z,101423.03
2019-01-02T11:59:27.930Z,101418.06
2019-01-02T12:04:29.857Z,101423.34
2019-01-02T12:09:31.745Z,101423.34
2019-01-02T12:14:33.701Z,101446.05
2019-01-02T12:19:35.862Z,101443.92
2019-01-02T12:24:37.783Z,101452.40
2019-01-02T12:29:39.749Z,101454.35
2019-01-02T12:34:41.790Z,101457.67
2019-01-02T12:39:43.679Z,101474.41
2019-01-02T12:44:45.600Z,101470.34
2019-01-02T12:49:47.519Z,101470.34
2019-01-02T12:54:49.414Z,101490.27
2019-01-02T12:59:51.428Z,101488.86
2019-01-02T13:05:31.604Z,101485.83
2019-01-02T13:10:41.060Z,101495.77
2019-01-02T13:16:26.090Z,101500.02
2019-01-02T13:21:49.928Z,101502.01
2019-01-02T13:27:38.621Z,101507.91
2019-01-02T13:32:57.420Z,101526.66
2019-01-02T13:38:41.212Z,101527.22
2019-01-02T13:44:09.735Z,101539.80
2019-01-02T13:50:01.306Z,101553.80
2019-01-02T13:55:07.685Z,101558.46
2019-01-02T14:00:09.944Z,101570.21
2019-01-02T14:05:15.205Z,101583.21
2019-01-02T14:10:17.122Z,101575.73
2019-01-02T14:15:19.098Z,101576.38
2019-01-02T14:20:21.005Z,101584.48
2019-01-02T14:25:22.957Z,101589.97
2019-01-02T14:30:24.865Z,101597.28
2019-01-02T14:35:26.972Z,101599.46
2019-01-02T14:40:28.876Z,101607.24
2019-01-02T14:45:31.115Z,101628.42
2019-01-02T14:50:33.025Z,101636.59
2019-01-02T14:55:35.265Z,101654.34
2019-01-02T15:00:37.210Z,101653.89
2019-01-02T15:05:39.118Z,101670.98
2019-01-02T15:10:41.036Z,101684.50
2019-01-02T15:15:43.479Z,101679.69
2019-01-02T15:20:45.627Z,101690.36
2019-01-02T15:25:47.600Z,101703.03
2019-01-02T15:30:49.614Z,101704.25
2019-01-02T15:35:51.525Z,101705.09
2019-01-02T15:40:53.473Z,101701.96
2019-01-02T15:45:55.396Z,101717.03
2019-01-02T15:50:57.342Z,101725.08
2019-01-02T15:55:59.359Z,101727.33
2019-01-02T16:01:01.360Z,101728.13
2019-01-02T16:06:04.424Z,101736.43
2019-01-02T16:11:06.334Z,101742.02
2019-01-02T16:16:10.134Z,101751.17
2019-01-02T16:21:12.088Z,101742.42
2019-01-02T16:26:14.012Z,101756.47
2019-01-02T16:31:15.934Z,101765.22
2019-01-02T16:36:17.877Z,101765.10
2019-01-02T16:41:19.788Z,101774.70
2019-01-02T16:46:21.730Z,101783.52
2019-01-02T16:51:23.637Z,101785.49
2019-01-02T16:56:25.587Z,101802.56
2019-01-02T17:01:27.597Z,101817.14
2019-01-02T17:06:29.500Z,101821.11
2019-01-02T17:11:32.127Z,101823.63
2019-01-02T17:16:34.111Z,101827.61
2019-01-02T17:21:36.011Z,101832.05
2019-01-02T17:26:37.958Z,101840.62
2019-01-02T17:31:39.938Z,101851.06
2019-01-02T17:36:42.199Z,101854.48
2019-01-02T17:41:44.128Z,101876.11
2019-01-02T17:46:46.185Z,101859.12
2019-01-02T17:51:48.090Z,101868.00
2019-01-02T17:56:50.059Z,101880.41
2019-01-02T18:01:52.992Z,101887.46
2019-01-02T18:06:54.890Z,101887.79
2019-01-02T18:11:56.845Z,101895.27
2019-01-02T18:16:58.780Z,101893.27
2019-01-02T18:22:00.681Z,101903.22
2019-01-02T18:27:02.917Z,101908.64
2019-01-02T18:32:04.888Z,101912.28
2019-01-02T18:37:06.795Z,101922.73
2019-01-02T18:42:08.826Z,101932.69
2019-01-02T18:47:10.743Z,101925.15
2019-01-02T18:52:12.644Z,101920.88
2019-01-02T18:57:15.078Z,101936.59
2019-01-02T19:02:16.979Z,101934.33
2019-01-02T19:07:18.881Z,101934.76
2019-01-02T19:12:20.799Z,101936.70
2019-01-02T19:17:22.730Z,101945.63
2019-01-02T19:22:24.679Z,101952.85
2019-01-02T19:27:26.619Z,101954.39
2019-01-02T19:32:28.570Z,101961.95
2019-01-02T19:37:30.636Z,101963.50
2019-01-02T19:42:32.565Z,101972.16
2019-01-02T19:47:34.505Z,101969.70
2019-01-02T19:52:36.447Z,101972.44
2019-01-02T19:57:38.343Z,101982.17
2019-01-02T20:02:40.243Z,101984.41
2019-01-02T20:07:42.177Z,101994.66
2019-01-02T20:12:44.559Z,101998.58
2019-01-02T20:24:16.654Z,102005.06
2019-01-02T20:29:18.566Z,102007.38
2019-01-02T20:34:20.510Z,101998.23
2019-01-02T20:39:22.419Z,102002.75
2019-01-02T20:44:24.334Z,102001.08
2019-01-02T20:49:26.657Z,102002.93
2019-01-02T20:54:28.575Z,102008.23
2019-01-02T20:59:30.490Z,102008.70
2019-01-02T21:04:32.409Z,102013.41
2019-01-02T21:09:34.315Z,102010.49
2019-01-02T21:14:36.519Z,102012.55
2019-01-02T21:19:38.519Z,102023.17
2019-01-02T21:24:40.761Z,102017.52
2019-01-02T21:29:42.671Z,102015.48
2019-01-02T21:34:44.589Z,102011.70
2019-01-02T21:39:46.511Z,102013.87
2019-01-02T21:44:49.447Z,102008.69
2019-01-02T21:49:51.523Z,102003.98
2019-01-02T21:54:53.539Z,101990.28
2019-01-02T21:59:55.448Z,101998.70
2019-01-02T22:04:57.378Z,102001.84
2019-01-02T22:09:59.284Z,102013.98
2019-01-02T22:15:01.208Z,102009.35
2019-01-02T22:20:03.677Z,102012.34
2019-01-02T22:25:06.359Z,102010.72
2019-01-02T22:30:08.616Z,102018.57
2019-01-02T22:35:10.616Z,102015.58
2019-01-02T22:40:12.529Z,102017.71
2019-01-02T22:45:14.620Z,102012.81
2019-01-02T22:50:16.574Z,102019.84
2019-01-02T22:55:18.483Z,102026.84
2019-01-02T23:00:38.893Z,102022.58
2019-01-02T23:06:00.310Z,102021.60
2019-01-02T23:11:20.387Z,102031.32
2019-01-02T23:16:58.932Z,102027.13
2019-01-02T23:22:19.727Z,102035.17
2019-01-02T23:27:46.936Z,102043.45
2019-01-02T23:33:11.533Z,102047.52
2019-01-02T23:38:31.901Z,102064.95
2019-01-02T23:43:54.751Z,102060.63
2019-01-02T23:49:15.326Z,102070.45
